sensor_id;sensor_type;location;lat;lon;timestamp;temperature;humidity
29237;DHT22;16266;50.866;4.398;2023-05-13T00:01:14;13.40;99.90
29237;DHT22;16266;50.866;4.398;2023-05-13T00:03:39;13.40;99.90
29237;DHT22;16266;50.866;4.398;2023-05-13T00:06:06;13.30;99.90
29237;DHT22;16266;50.866;4.398;2023-05-13T00:08:32;13.30;99.90
29237;DHT22;16266;50.866;4.398;2023-05-13T00:10:58;13.30;99.90
29237;DHT22;16266;50.866;4.398;2023-05-13T00:13:24;13.30;99.90
29237;DHT22;16266;50.866;4.398;2023-05-13T00:15:49;13.30;99.90
29237;DHT22;16266;50.866;4.398;2023-05-13T00:18:15;13.30;99.90
29237;DHT22;16266;50.866;4.398;2023-05-13T00:20:41;13.40;99.90
29237;DHT22;16266;50.866;4.398;2023-05-13T00:23:07;13.40;99.90
29237;DHT22;16266;50.866;4.398;2023-05-13T00:25:34;13.50;99.90
29237;DHT22;16266;50.866;4.398;2023-05-13T00:28:00;13.50;99.90
29237;DHT22;16266;50.866;4.398;2023-05-13T00:30:25;13.50;99.90
29237;DHT22;16266;50.866;4.398;2023-05-13T00:32:51;13.50;99.90
29237;DHT22;16266;50.866;4.398;2023-05-13T00:35:17;13.50;99.90
29237;DHT22;16266;50.866;4.398;2023-05-13T00:37:43;13.50;99.90
29237;DHT22;16266;50.866;4.398;2023-05-13T00:40:38;13.50;99.90
29237;DHT22;16266;50.866;4.398;2023-05-13T00:43:04;13.60;99.90
29237;DHT22;16266;50.866;4.398;2023-05-13T00:45:30;13.50;99.90
29237;DHT22;16266;50.866;4.398;2023-05-13T00:47:57;13.50;99.90
29237;DHT22;16266;50.866;4.398;2023-05-13T00:50:23;13.50;99.90
29237;DHT22;16266;50.866;4.398;2023-05-13T00:52:49;13.40;99.90
29237;DHT22;16266;50.866;4.398;2023-05-13T00:55:15;13.30;99.90
29237;DHT22;16266;50.866;4.398;2023-05-13T00:57:41;13.40;99.90
29237;DHT22;16266;50.866;4.398;2023-05-13T01:00:08;13.30;99.90
29237;DHT22;16266;50.866;4.398;2023-05-13T01:02:59;13.30;99.90
29237;DHT22;16266;50.866;4.398;2023-05-13T01:11:04;13.30;99.90
29237;DHT22;16266;50.866;4.398;2023-05-13T01:13:35;13.30;99.90
29237;DHT22;16266;50.866;4.398;2023-05-13T01:16:14;13.40;99.90
29237;DHT22;16266;50.866;4.398;2023-05-13T01:18:46;13.40;99.90
29237;DHT22;16266;50.866;4.398;2023-05-13T01:21:12;13.40;99.90
29237;DHT22;16266;50.866;4.398;2023-05-13T01:23:37;13.40;99.90
29237;DHT22;16266;50.866;4.398;2023-05-13T01:26:03;13.40;99.90
29237;DHT22;16266;50.866;4.398;2023-05-13T01:28:29;13.40;99.90
29237;DHT22;16266;50.866;4.398;2023-05-13T01:30:56;13.50;99.90
29237;DHT22;16266;50.866;4.398;2023-05-13T01:33:22;13.40;99.90
29237;DHT22;16266;50.866;4.398;2023-05-13T01:35:48;13.50;99.90
29237;DHT22;16266;50.866;4.398;2023-05-13T01:38:14;13.60;99.90
29237;DHT22;16266;50.866;4.398;2023-05-13T01:40:41;13.60;99.90
29237;DHT22;16266;50.866;4.398;2023-05-13T01:43:07;13.50;99.90
29237;DHT22;16266;50.866;4.398;2023-05-13T01:45:32;13.40;99.90
29237;DHT22;16266;50.866;4.398;2023-05-13T01:47:58;13.40;99.90
29237;DHT22;16266;50.866;4.398;2023-05-13T01:50:24;13.50;99.90
29237;DHT22;16266;50.866;4.398;2023-05-13T01:52:50;13.50;99.90
29237;DHT22;16266;50.866;4.398;2023-05-13T01:55:16;13.50;99.90
29237;DHT22;16266;50.866;4.398;2023-05-13T01:57:42;13.50;99.90
29237;DHT22;16266;50.866;4.398;2023-05-13T02:00:08;13.50;99.90
29237;DHT22;16266;50.866;4.398;2023-05-13T02:02:34;13.50;99.90
29237;DHT22;16266;50.866;4.398;2023-05-13T02:05:00;13.60;99.90
29237;DHT22;16266;50.866;4.398;2023-05-13T02:07:25;13.60;99.90
29237;DHT22;16266;50.866;4.398;2023-05-13T02:09:51;13.50;99.90
29237;DHT22;16266;50.866;4.398;2023-05-13T02:12:26;13.60;99.90
29237;DHT22;16266;50.866;4.398;2023-05-13T02:14:53;13.50;99.90
29237;DHT22;16266;50.866;4.398;2023-05-13T02:17:19;13.50;99.90
29237;DHT22;16266;50.866;4.398;2023-05-13T02:19:44;13.40;99.90
29237;DHT22;16266;50.866;4.398;2023-05-13T02:22:10;13.40;99.90
29237;DHT22;16266;50.866;4.398;2023-05-13T02:24:37;13.40;99.90
29237;DHT22;16266;50.866;4.398;2023-05-13T02:27:05;13.50;99.90
29237;DHT22;16266;50.866;4.398;2023-05-13T02:29:32;13.40;99.90
29237;DHT22;16266;50.866;4.398;2023-05-13T02:31:58;13.30;99.90
29237;DHT22;16266;50.866;4.398;2023-05-13T02:34:23;13.30;99.90
29237;DHT22;16266;50.866;4.398;2023-05-13T02:36:49;13.40;99.90
29237;DHT22;16266;50.866;4.398;2023-05-13T02:39:15;13.40;99.90
29237;DHT22;16266;50.866;4.398;2023-05-13T02:41:41;13.40;99.90
29237;DHT22;16266;50.866;4.398;2023-05-13T02:44:09;13.40;99.90
29237;DHT22;16266;50.866;4.398;2023-05-13T02:46:35;13.30;99.90
29237;DHT22;16266;50.866;4.398;2023-05-13T02:49:01;13.40;99.90
29237;DHT22;16266;50.866;4.398;2023-05-13T02:51:27;13.50;99.90
29237;DHT22;16266;50.866;4.398;2023-05-13T02:53:52;13.50;99.90
29237;DHT22;16266;50.866;4.398;2023-05-13T02:56:18;13.60;99.90
29237;DHT22;16266;50.866;4.398;2023-05-13T02:58:44;13.60;99.90
29237;DHT22;16266;50.866;4.398;2023-05-13T03:01:09;13.60;99.90
29237;DHT22;16266;50.866;4.398;2023-05-13T03:03:35;13.70;99.90
29237;DHT22;16266;50.866;4.398;2023-05-13T03:06:01;13.60;99.90
29237;DHT22;16266;50.866;4.398;2023-05-13T03:08:27;13.60;99.90
29237;DHT22;16266;50.866;4.398;2023-05-13T03:10:52;13.60;99.90
29237;DHT22;16266;50.866;4.398;2023-05-13T03:13:18;13.60;99.90
29237;DHT22;16266;50.866;4.398;2023-05-13T03:15:43;13.50;99.90
29237;DHT22;16266;50.866;4.398;2023-05-13T03:18:09;13.60;99.90
29237;DHT22;16266;50.866;4.398;2023-05-13T03:20:35;13.60;99.90
29237;DHT22;16266;50.866;4.398;2023-05-13T03:23:00;13.70;99.90
29237;DHT22;16266;50.866;4.398;2023-05-13T03:25:26;13.60;99.90
29237;DHT22;16266;50.866;4.398;2023-05-13T03:27:53;13.60;99.90
29237;DHT22;16266;50.866;4.398;2023-05-13T03:30:19;13.70;99.90
29237;DHT22;16266;50.866;4.398;2023-05-13T03:32:44;13.60;99.90
29237;DHT22;16266;50.866;4.398;2023-05-13T03:35:10;13.60;99.90
29237;DHT22;16266;50.866;4.398;2023-05-13T03:37:36;13.60;99.90
29237;DHT22;16266;50.866;4.398;2023-05-13T03:40:01;13.60;99.90
29237;DHT22;16266;50.866;4.398;2023-05-13T03:42:27;13.60;99.90
29237;DHT22;16266;50.866;4.398;2023-05-13T03:44:55;13.50;99.90
29237;DHT22;16266;50.866;4.398;2023-05-13T03:47:22;13.50;99.90
29237;DHT22;16266;50.866;4.398;2023-05-13T03:49:48;13.30;99.90
29237;DHT22;16266;50.866;4.398;2023-05-13T03:52:14;13.30;99.90
29237;DHT22;16266;50.866;4.398;2023-05-13T03:54:41;13.20;99.90
29237;DHT22;16266;50.866;4.398;2023-05-13T03:57:07;13.10;99.90
29237;DHT22;16266;50.866;4.398;2023-05-13T03:59:33;13.00;99.90
29237;DHT22;16266;50.866;4.398;2023-05-13T04:01:58;12.90;99.90
29237;DHT22;16266;50.866;4.398;2023-05-13T04:04:24;12.90;99.90
29237;DHT22;16266;50.866;4.398;2023-05-13T04:06:49;12.80;99.90
29237;DHT22;16266;50.866;4.398;2023-05-13T04:09:15;12.80;99.90
29237;DHT22;16266;50.866;4.398;2023-05-13T04:11:41;12.80;99.90
29237;DHT22;16266;50.866;4.398;2023-05-13T04:14:06;12.80;99.90
29237;DHT22;16266;50.866;4.398;2023-05-13T04:16:32;12.80;99.90
29237;DHT22;16266;50.866;4.398;2023-05-13T04:18:58;12.80;99.90
29237;DHT22;16266;50.866;4.398;2023-05-13T04:21:23;12.90;99.90
29237;DHT22;16266;50.866;4.398;2023-05-13T04:23:49;12.90;99.90
29237;DHT22;16266;50.866;4.398;2023-05-13T04:26:15;13.00;99.90
29237;DHT22;16266;50.866;4.398;2023-05-13T04:28:41;13.10;99.90
29237;DHT22;16266;50.866;4.398;2023-05-13T04:31:06;13.10;99.90
29237;DHT22;16266;50.866;4.398;2023-05-13T04:33:32;13.10;99.90
29237;DHT22;16266;50.866;4.398;2023-05-13T04:35:58;13.20;99.90
29237;DHT22;16266;50.866;4.398;2023-05-13T04:38:23;13.30;99.90
29237;DHT22;16266;50.866;4.398;2023-05-13T04:40:49;13.40;99.90
29237;DHT22;16266;50.866;4.398;2023-05-13T04:43:16;13.70;99.90
29237;DHT22;16266;50.866;4.398;2023-05-13T04:45:41;14.20;99.90
29237;DHT22;16266;50.866;4.398;2023-05-13T04:48:08;14.60;99.90
29237;DHT22;16266;50.866;4.398;2023-05-13T04:50:34;14.90;99.90
29237;DHT22;16266;50.866;4.398;2023-05-13T04:52:59;15.40;99.90
29237;DHT22;16266;50.866;4.398;2023-05-13T04:55:25;16.00;99.90
29237;DHT22;16266;50.866;4.398;2023-05-13T04:57:51;16.60;99.90
29237;DHT22;16266;50.866;4.398;2023-05-13T05:00:16;17.20;99.90
29237;DHT22;16266;50.866;4.398;2023-05-13T05:02:42;17.90;99.90
29237;DHT22;16266;50.866;4.398;2023-05-13T05:05:08;18.70;99.90
29237;DHT22;16266;50.866;4.398;2023-05-13T05:07:34;19.30;99.90
29237;DHT22;16266;50.866;4.398;2023-05-13T05:10:05;19.80;99.90
29237;DHT22;16266;50.866;4.398;2023-05-13T05:12:31;20.30;99.90
29237;DHT22;16266;50.866;4.398;2023-05-13T05:14:57;20.60;99.90
29237;DHT22;16266;50.866;4.398;2023-05-13T05:17:22;20.60;99.90
29237;DHT22;16266;50.866;4.398;2023-05-13T05:19:48;20.60;99.90
29237;DHT22;16266;50.866;4.398;2023-05-13T05:22:14;20.40;99.90
29237;DHT22;16266;50.866;4.398;2023-05-13T05:24:39;20.20;99.90
29237;DHT22;16266;50.866;4.398;2023-05-13T05:27:05;20.30;99.90
29237;DHT22;16266;50.866;4.398;2023-05-13T05:29:32;20.10;99.90
29237;DHT22;16266;50.866;4.398;2023-05-13T05:31:58;19.70;99.90
29237;DHT22;16266;50.866;4.398;2023-05-13T05:34:23;19.30;99.90
29237;DHT22;16266;50.866;4.398;2023-05-13T05:36:49;19.10;99.90
29237;DHT22;16266;50.866;4.398;2023-05-13T05:39:15;18.60;99.90
29237;DHT22;16266;50.866;4.398;2023-05-13T05:41:40;18.40;99.90
29237;DHT22;16266;50.866;4.398;2023-05-13T05:44:06;18.10;99.90
29237;DHT22;16266;50.866;4.398;2023-05-13T05:46:32;18.10;99.90
29237;DHT22;16266;50.866;4.398;2023-05-13T05:48:58;18.00;99.90
29237;DHT22;16266;50.866;4.398;2023-05-13T05:51:23;17.80;99.90
29237;DHT22;16266;50.866;4.398;2023-05-13T05:53:49;17.70;99.90
29237;DHT22;16266;50.866;4.398;2023-05-13T05:56:15;17.90;99.90
29237;DHT22;16266;50.866;4.398;2023-05-13T05:58:40;18.90;99.90
29237;DHT22;16266;50.866;4.398;2023-05-13T06:01:06;19.70;99.90
29237;DHT22;16266;50.866;4.398;2023-05-13T06:03:32;20.70;99.90
29237;DHT22;16266;50.866;4.398;2023-05-13T06:05:58;21.50;99.90
29237;DHT22;16266;50.866;4.398;2023-05-13T06:08:24;22.20;99.90
29237;DHT22;16266;50.866;4.398;2023-05-13T06:10:56;23.70;99.90
29237;DHT22;16266;50.866;4.398;2023-05-13T06:13:21;24.00;99.90
29237;DHT22;16266;50.866;4.398;2023-05-13T06:15:47;23.40;99.90
29237;DHT22;16266;50.866;4.398;2023-05-13T06:18:13;22.20;99.90
29237;DHT22;16266;50.866;4.398;2023-05-13T06:20:39;21.20;99.90
29237;DHT22;16266;50.866;4.398;2023-05-13T06:23:06;20.90;99.90
29237;DHT22;16266;50.866;4.398;2023-05-13T06:25:31;20.70;99.90
29237;DHT22;16266;50.866;4.398;2023-05-13T06:27:57;20.60;99.90
29237;DHT22;16266;50.866;4.398;2023-05-13T06:30:24;20.30;99.90
29237;DHT22;16266;50.866;4.398;2023-05-13T06:32:49;20.30;99.90
29237;DHT22;16266;50.866;4.398;2023-05-13T06:35:15;20.60;99.90
29237;DHT22;16266;50.866;4.398;2023-05-13T06:37:41;21.50;99.90
29237;DHT22;16266;50.866;4.398;2023-05-13T06:40:07;22.70;99.90
29237;DHT22;16266;50.866;4.398;2023-05-13T06:42:33;23.20;99.90
29237;DHT22;16266;50.866;4.398;2023-05-13T06:45:05;23.70;99.90
29237;DHT22;16266;50.866;4.398;2023-05-13T06:47:31;24.60;99.90
29237;DHT22;16266;50.866;4.398;2023-05-13T06:49:57;25.80;99.90
29237;DHT22;16266;50.866;4.398;2023-05-13T06:52:22;26.60;93.90
29237;DHT22;16266;50.866;4.398;2023-05-13T06:54:48;26.70;92.10
29237;DHT22;16266;50.866;4.398;2023-05-13T06:57:14;27.60;89.70
29237;DHT22;16266;50.866;4.398;2023-05-13T06:59:39;28.30;87.70
29237;DHT22;16266;50.866;4.398;2023-05-13T07:02:05;27.90;82.90
29237;DHT22;16266;50.866;4.398;2023-05-13T07:04:34;29.00;81.90
29237;DHT22;16266;50.866;4.398;2023-05-13T07:06:59;28.40;76.60
29237;DHT22;16266;50.866;4.398;2023-05-13T07:09:25;28.40;76.60
29237;DHT22;16266;50.866;4.398;2023-05-13T07:11:51;29.00;75.00
29237;DHT22;16266;50.866;4.398;2023-05-13T07:14:17;29.70;68.10
29237;DHT22;16266;50.866;4.398;2023-05-13T07:16:43;30.00;66.00
29237;DHT22;16266;50.866;4.398;2023-05-13T07:19:08;31.10;63.50
29237;DHT22;16266;50.866;4.398;2023-05-13T07:21:34;32.40;59.70
29237;DHT22;16266;50.866;4.398;2023-05-13T07:24:00;33.30;53.90
29237;DHT22;16266;50.866;4.398;2023-05-13T07:26:26;34.50;47.70
29237;DHT22;16266;50.866;4.398;2023-05-13T07:28:52;35.00;43.00
29237;DHT22;16266;50.866;4.398;2023-05-13T07:31:18;34.50;40.50
29237;DHT22;16266;50.866;4.398;2023-05-13T07:33:43;32.50;42.20
29237;DHT22;16266;50.866;4.398;2023-05-13T07:36:09;32.90;44.50
29237;DHT22;16266;50.866;4.398;2023-05-13T07:38:35;32.70;42.60
29237;DHT22;16266;50.866;4.398;2023-05-13T07:41:00;33.40;42.10
29237;DHT22;16266;50.866;4.398;2023-05-13T07:43:26;33.40;42.50
29237;DHT22;16266;50.866;4.398;2023-05-13T07:45:52;33.50;41.80
29237;DHT22;16266;50.866;4.398;2023-05-13T07:48:18;32.50;42.50
29237;DHT22;16266;50.866;4.398;2023-05-13T07:50:44;32.60;42.20
29237;DHT22;16266;50.866;4.398;2023-05-13T07:53:10;33.20;42.30
29237;DHT22;16266;50.866;4.398;2023-05-13T07:55:36;32.30;42.90
29237;DHT22;16266;50.866;4.398;2023-05-13T07:58:02;31.50;44.50
29237;DHT22;16266;50.866;4.398;2023-05-13T08:00:28;31.10;44.40
29237;DHT22;16266;50.866;4.398;2023-05-13T08:02:53;31.00;45.50
29237;DHT22;16266;50.866;4.398;2023-05-13T08:05:20;31.00;46.40
29237;DHT22;16266;50.866;4.398;2023-05-13T08:07:46;30.80;45.90
29237;DHT22;16266;50.866;4.398;2023-05-13T08:10:12;31.70;45.20
29237;DHT22;16266;50.866;4.398;2023-05-13T08:12:37;32.10;42.60
29237;DHT22;16266;50.866;4.398;2023-05-13T08:15:05;31.30;44.30
29237;DHT22;16266;50.866;4.398;2023-05-13T08:17:32;31.20;44.40
29237;DHT22;16266;50.866;4.398;2023-05-13T08:19:59;31.90;45.30
29237;DHT22;16266;50.866;4.398;2023-05-13T08:22:25;32.40;43.30
29237;DHT22;16266;50.866;4.398;2023-05-13T08:24:52;32.80;43.50
29237;DHT22;16266;50.866;4.398;2023-05-13T08:27:18;32.40;42.10
29237;DHT22;16266;50.866;4.398;2023-05-13T08:29:43;32.40;42.50
29237;DHT22;16266;50.866;4.398;2023-05-13T08:32:09;32.00;42.00
29237;DHT22;16266;50.866;4.398;2023-05-13T08:34:35;31.50;43.60
29237;DHT22;16266;50.866;4.398;2023-05-13T08:37:01;30.30;45.30
29237;DHT22;16266;50.866;4.398;2023-05-13T08:39:27;29.70;48.40
29237;DHT22;16266;50.866;4.398;2023-05-13T08:41:55;30.60;49.40
29237;DHT22;16266;50.866;4.398;2023-05-13T08:44:24;31.30;45.40
29237;DHT22;16266;50.866;4.398;2023-05-13T08:47:01;31.50;44.30
29237;DHT22;16266;50.866;4.398;2023-05-13T08:49:28;31.30;45.90
29237;DHT22;16266;50.866;4.398;2023-05-13T08:51:55;31.00;44.20
29237;DHT22;16266;50.866;4.398;2023-05-13T08:54:21;31.20;44.80
29237;DHT22;16266;50.866;4.398;2023-05-13T08:56:47;30.70;44.50
29237;DHT22;16266;50.866;4.398;2023-05-13T08:59:12;31.10;45.80
29237;DHT22;16266;50.866;4.398;2023-05-13T09:01:38;32.00;42.90
29237;DHT22;16266;50.866;4.398;2023-05-13T09:04:06;31.40;42.60
29237;DHT22;16266;50.866;4.398;2023-05-13T09:06:33;31.40;45.90
29237;DHT22;16266;50.866;4.398;2023-05-13T09:08:59;32.20;46.70
29237;DHT22;16266;50.866;4.398;2023-05-13T09:11:25;33.50;43.30
29237;DHT22;16266;50.866;4.398;2023-05-13T09:13:58;34.10;41.50
29237;DHT22;16266;50.866;4.398;2023-05-13T09:16:26;33.40;40.10
29237;DHT22;16266;50.866;4.398;2023-05-13T09:18:59;31.60;41.50
29237;DHT22;16266;50.866;4.398;2023-05-13T09:21:34;30.60;43.90
29237;DHT22;16266;50.866;4.398;2023-05-13T09:24:09;30.20;44.40
29237;DHT22;16266;50.866;4.398;2023-05-13T09:26:35;30.60;44.60
29237;DHT22;16266;50.866;4.398;2023-05-13T09:31:39;30.60;45.30
29237;DHT22;16266;50.866;4.398;2023-05-13T09:34:05;30.80;43.90
29237;DHT22;16266;50.866;4.398;2023-05-13T09:36:31;30.20;46.20
29237;DHT22;16266;50.866;4.398;2023-05-13T09:38:57;30.60;46.10
29237;DHT22;16266;50.866;4.398;2023-05-13T09:41:26;32.10;43.50
29237;DHT22;16266;50.866;4.398;2023-05-13T09:43:51;32.10;43.70
29237;DHT22;16266;50.866;4.398;2023-05-13T09:46:17;31.90;45.20
29237;DHT22;16266;50.866;4.398;2023-05-13T09:48:43;31.20;44.30
29237;DHT22;16266;50.866;4.398;2023-05-13T09:51:09;31.50;46.00
29237;DHT22;16266;50.866;4.398;2023-05-13T09:53:34;32.40;44.10
29237;DHT22;16266;50.866;4.398;2023-05-13T09:56:00;33.40;41.70
29237;DHT22;16266;50.866;4.398;2023-05-13T09:58:27;33.30;39.60
29237;DHT22;16266;50.866;4.398;2023-05-13T10:00:54;32.60;41.10
29237;DHT22;16266;50.866;4.398;2023-05-13T10:03:20;31.80;42.20
29237;DHT22;16266;50.866;4.398;2023-05-13T10:05:47;31.00;43.30
29237;DHT22;16266;50.866;4.398;2023-05-13T10:08:13;30.80;45.40
29237;DHT22;16266;50.866;4.398;2023-05-13T10:10:41;31.80;42.40
29237;DHT22;16266;50.866;4.398;2023-05-13T10:13:08;32.80;41.50
29237;DHT22;16266;50.866;4.398;2023-05-13T10:18:11;31.70;42.50
29237;DHT22;16266;50.866;4.398;2023-05-13T10:20:37;32.60;42.60
29237;DHT22;16266;50.866;4.398;2023-05-13T10:23:03;33.40;40.30
29237;DHT22;16266;50.866;4.398;2023-05-13T10:25:29;32.90;39.70
29237;DHT22;16266;50.866;4.398;2023-05-13T10:27:56;34.10;39.70
29237;DHT22;16266;50.866;4.398;2023-05-13T10:30:23;33.90;38.90
29237;DHT22;16266;50.866;4.398;2023-05-13T10:32:51;33.10;40.00
29237;DHT22;16266;50.866;4.398;2023-05-13T10:35:19;33.50;39.40
29237;DHT22;16266;50.866;4.398;2023-05-13T10:38:15;32.60;40.20
29237;DHT22;16266;50.866;4.398;2023-05-13T10:40:54;33.70;39.50
29237;DHT22;16266;50.866;4.398;2023-05-13T10:43:28;33.70;38.30
29237;DHT22;16266;50.866;4.398;2023-05-13T10:46:01;34.50;35.70
29237;DHT22;16266;50.866;4.398;2023-05-13T10:48:46;34.50;37.20
29237;DHT22;16266;50.866;4.398;2023-05-13T10:51:14;33.80;37.10
29237;DHT22;16266;50.866;4.398;2023-05-13T10:53:43;34.90;35.00
29237;DHT22;16266;50.866;4.398;2023-05-13T10:56:10;34.60;33.90
29237;DHT22;16266;50.866;4.398;2023-05-13T10:58:36;34.40;34.60
29237;DHT22;16266;50.866;4.398;2023-05-13T11:01:28;34.00;36.00
29237;DHT22;16266;50.866;4.398;2023-05-13T11:04:02;33.70;37.60
29237;DHT22;16266;50.866;4.398;2023-05-13T11:06:33;33.20;40.10
29237;DHT22;16266;50.866;4.398;2023-05-13T11:08:59;33.00;38.30
29237;DHT22;16266;50.866;4.398;2023-05-13T11:11:29;32.50;38.50
29237;DHT22;16266;50.866;4.398;2023-05-13T11:16:24;30.50;41.50
29237;DHT22;16266;50.866;4.398;2023-05-13T11:18:50;31.70;42.30
29237;DHT22;16266;50.866;4.398;2023-05-13T11:21:31;32.60;40.50
29237;DHT22;16266;50.866;4.398;2023-05-13T11:24:04;34.00;37.40
29237;DHT22;16266;50.866;4.398;2023-05-13T11:26:55;33.50;38.70
29237;DHT22;16266;50.866;4.398;2023-05-13T11:29:31;32.10;40.00
29237;DHT22;16266;50.866;4.398;2023-05-13T11:31:58;31.60;43.20
29237;DHT22;16266;50.866;4.398;2023-05-13T11:34:24;33.00;43.00
29237;DHT22;16266;50.866;4.398;2023-05-13T11:36:54;33.10;41.50
29237;DHT22;16266;50.866;4.398;2023-05-13T11:39:21;33.20;40.30
29237;DHT22;16266;50.866;4.398;2023-05-13T11:41:48;32.60;41.90
29237;DHT22;16266;50.866;4.398;2023-05-13T11:44:21;32.60;41.90
29237;DHT22;16266;50.866;4.398;2023-05-13T11:49:42;31.50;42.10
29237;DHT22;16266;50.866;4.398;2023-05-13T11:52:10;30.80;41.40
29237;DHT22;16266;50.866;4.398;2023-05-13T11:54:43;31.00;43.60
29237;DHT22;16266;50.866;4.398;2023-05-13T11:57:28;30.40;40.10
29237;DHT22;16266;50.866;4.398;2023-05-13T12:00:06;28.90;42.40
29237;DHT22;16266;50.866;4.398;2023-05-13T12:02:36;27.70;48.00
29237;DHT22;16266;50.866;4.398;2023-05-13T12:05:07;28.90;47.40
29237;DHT22;16266;50.866;4.398;2023-05-13T12:07:33;31.50;41.80
29237;DHT22;16266;50.866;4.398;2023-05-13T12:10:01;32.30;34.70
29237;DHT22;16266;50.866;4.398;2023-05-13T12:12:29;32.80;30.60
29237;DHT22;16266;50.866;4.398;2023-05-13T12:14:57;32.30;30.00
29237;DHT22;16266;50.866;4.398;2023-05-13T12:17:24;33.20;29.10
29237;DHT22;16266;50.866;4.398;2023-05-13T12:20:10;32.10;29.90
29237;DHT22;16266;50.866;4.398;2023-05-13T12:25:37;32.30;29.90
29237;DHT22;16266;50.866;4.398;2023-05-13T12:28:20;30.40;32.20
29237;DHT22;16266;50.866;4.398;2023-05-13T12:31:03;29.30;33.00
29237;DHT22;16266;50.866;4.398;2023-05-13T12:33:40;28.70;32.90
29237;DHT22;16266;50.866;4.398;2023-05-13T12:36:26;29.30;33.70
29237;DHT22;16266;50.866;4.398;2023-05-13T12:39:08;30.90;30.10
29237;DHT22;16266;50.866;4.398;2023-05-13T12:41:38;32.50;28.50
29237;DHT22;16266;50.866;4.398;2023-05-13T12:44:08;33.10;27.60
29237;DHT22;16266;50.866;4.398;2023-05-13T12:46:34;31.90;27.80
29237;DHT22;16266;50.866;4.398;2023-05-13T12:49:02;28.90;30.70
29237;DHT22;16266;50.866;4.398;2023-05-13T12:51:28;28.10;32.30
29237;DHT22;16266;50.866;4.398;2023-05-13T12:53:54;28.70;32.30
29237;DHT22;16266;50.866;4.398;2023-05-13T12:56:21;30.60;30.00
29237;DHT22;16266;50.866;4.398;2023-05-13T12:58:48;29.50;29.70
29237;DHT22;16266;50.866;4.398;2023-05-13T13:01:15;30.10;29.90
29237;DHT22;16266;50.866;4.398;2023-05-13T13:03:40;30.60;29.60
29237;DHT22;16266;50.866;4.398;2023-05-13T13:06:07;30.90;29.50
29237;DHT22;16266;50.866;4.398;2023-05-13T13:08:33;30.80;30.00
29237;DHT22;16266;50.866;4.398;2023-05-13T13:10:59;29.80;30.80
29237;DHT22;16266;50.866;4.398;2023-05-13T13:13:25;28.40;34.40
29237;DHT22;16266;50.866;4.398;2023-05-13T13:15:51;27.10;35.80
29237;DHT22;16266;50.866;4.398;2023-05-13T13:18:17;26.30;37.90
29237;DHT22;16266;50.866;4.398;2023-05-13T13:20:43;26.60;40.80
29237;DHT22;16266;50.866;4.398;2023-05-13T13:23:09;28.00;37.00
29237;DHT22;16266;50.866;4.398;2023-05-13T13:25:35;28.80;34.80
29237;DHT22;16266;50.866;4.398;2023-05-13T13:28:01;29.70;34.50
29237;DHT22;16266;50.866;4.398;2023-05-13T13:30:26;29.40;34.40
29237;DHT22;16266;50.866;4.398;2023-05-13T13:32:52;29.20;33.80
29237;DHT22;16266;50.866;4.398;2023-05-13T13:35:18;29.70;32.30
29237;DHT22;16266;50.866;4.398;2023-05-13T13:37:44;29.30;31.50
29237;DHT22;16266;50.866;4.398;2023-05-13T13:40:11;29.30;30.00
29237;DHT22;16266;50.866;4.398;2023-05-13T13:42:36;29.10;31.50
29237;DHT22;16266;50.866;4.398;2023-05-13T13:45:02;28.50;33.20
29237;DHT22;16266;50.866;4.398;2023-05-13T13:47:28;28.30;33.00
29237;DHT22;16266;50.866;4.398;2023-05-13T13:49:54;27.10;32.30
29237;DHT22;16266;50.866;4.398;2023-05-13T13:52:19;26.10;34.50
29237;DHT22;16266;50.866;4.398;2023-05-13T13:54:47;26.10;36.40
29237;DHT22;16266;50.866;4.398;2023-05-13T13:57:13;25.70;38.20
29237;DHT22;16266;50.866;4.398;2023-05-13T13:59:39;25.10;39.40
29237;DHT22;16266;50.866;4.398;2023-05-13T14:02:05;24.20;41.40
29237;DHT22;16266;50.866;4.398;2023-05-13T14:04:31;23.90;43.70
29237;DHT22;16266;50.866;4.398;2023-05-13T14:06:58;24.50;40.30
29237;DHT22;16266;50.866;4.398;2023-05-13T14:09:24;25.00;37.50
29237;DHT22;16266;50.866;4.398;2023-05-13T14:11:50;25.30;35.20
29237;DHT22;16266;50.866;4.398;2023-05-13T14:14:16;25.70;33.90
29237;DHT22;16266;50.866;4.398;2023-05-13T14:16:42;25.80;33.80
29237;DHT22;16266;50.866;4.398;2023-05-13T14:19:09;25.70;34.00
29237;DHT22;16266;50.866;4.398;2023-05-13T14:21:34;25.60;34.50
29237;DHT22;16266;50.866;4.398;2023-05-13T14:24:00;25.10;36.70
29237;DHT22;16266;50.866;4.398;2023-05-13T14:26:26;24.90;38.60
29237;DHT22;16266;50.866;4.398;2023-05-13T14:28:53;25.20;38.70
29237;DHT22;16266;50.866;4.398;2023-05-13T14:31:18;25.70;38.60
29237;DHT22;16266;50.866;4.398;2023-05-13T14:33:44;26.10;37.70
29237;DHT22;16266;50.866;4.398;2023-05-13T14:36:10;25.70;35.00
29237;DHT22;16266;50.866;4.398;2023-05-13T14:38:43;25.30;31.80
29237;DHT22;16266;50.866;4.398;2023-05-13T14:41:09;24.70;33.50
29237;DHT22;16266;50.866;4.398;2023-05-13T14:43:35;24.30;34.90
29237;DHT22;16266;50.866;4.398;2023-05-13T14:46:00;24.40;35.70
29237;DHT22;16266;50.866;4.398;2023-05-13T14:48:26;24.70;36.70
29237;DHT22;16266;50.866;4.398;2023-05-13T14:50:52;25.10;37.20
29237;DHT22;16266;50.866;4.398;2023-05-13T14:53:18;25.00;43.90
29237;DHT22;16266;50.866;4.398;2023-05-13T14:55:44;24.70;53.60
29237;DHT22;16266;50.866;4.398;2023-05-13T14:58:10;24.30;84.00
29237;DHT22;16266;50.866;4.398;2023-05-13T15:00:36;24.00;66.50
29237;DHT22;16266;50.866;4.398;2023-05-13T15:03:06;24.00;51.00
29237;DHT22;16266;50.866;4.398;2023-05-13T15:05:31;23.90;92.20
29237;DHT22;16266;50.866;4.398;2023-05-13T15:07:58;23.90;99.90
29237;DHT22;16266;50.866;4.398;2023-05-13T15:10:24;23.70;99.90
29237;DHT22;16266;50.866;4.398;2023-05-13T15:12:50;23.80;99.90
29237;DHT22;16266;50.866;4.398;2023-05-13T15:15:15;23.90;99.90
29237;DHT22;16266;50.866;4.398;2023-05-13T15:17:41;23.70;99.90
29237;DHT22;16266;50.866;4.398;2023-05-13T15:20:07;23.80;99.90
29237;DHT22;16266;50.866;4.398;2023-05-13T15:22:33;23.70;99.90
29237;DHT22;16266;50.866;4.398;2023-05-13T15:24:59;23.70;99.90
29237;DHT22;16266;50.866;4.398;2023-05-13T15:27:27;23.80;99.90
29237;DHT22;16266;50.866;4.398;2023-05-13T15:29:53;23.70;99.90
29237;DHT22;16266;50.866;4.398;2023-05-13T15:32:19;23.30;99.90
29237;DHT22;16266;50.866;4.398;2023-05-13T15:34:45;23.10;99.90
29237;DHT22;16266;50.866;4.398;2023-05-13T15:37:10;23.00;99.90
29237;DHT22;16266;50.866;4.398;2023-05-13T15:39:36;22.90;99.90
29237;DHT22;16266;50.866;4.398;2023-05-13T15:42:02;23.00;99.80
29237;DHT22;16266;50.866;4.398;2023-05-13T15:44:28;23.00;97.20
29237;DHT22;16266;50.866;4.398;2023-05-13T15:46:54;23.10;97.40
29237;DHT22;16266;50.866;4.398;2023-05-13T15:49:19;23.10;93.90